Time;durP1;ratioP1;P1;durP2;ratioP2;P2;SDS_P1;SDS_P2;PMS_P1;PMS_P2;Temp;Humidity;BMP_temperature;BMP_pressure;BME280_temperature;BME280_humidity;BME280_pressure;Samples;Min_cycle;Max_cycle;Signal;HPM_P1;HPM_P2
2022/03/03 00:00:38;;;;;;;16.73;9.93;;;4.10;73.70;;;;;;4957557;28;20029;-79
2022/03/03 00:03:04;;;;;;;19.33;12.13;;;4.10;73.80;;;;;;4943270;28;20034;-79
2022/03/03 00:05:31;;;;;;;18.20;11.23;;;4.00;74.70;;;;;;4944728;28;20046;-79
2022/03/03 00:07:57;;;;;;;17.50;10.90;;;4.00;74.40;;;;;;4941107;28;20030;-79
2022/03/03 00:10:23;;;;;;;18.37;11.37;;;4.00;75.20;;;;;;4924699;28;20347;-78
2022/03/03 00:12:50;;;;;;;20.03;11.43;;;4.00;74.70;;;;;;4955297;28;20037;-80
2022/03/03 00:15:16;;;;;;;17.80;10.67;;;4.00;74.90;;;;;;4955478;28;20034;-80
2022/03/03 00:17:43;;;;;;;19.50;12.50;;;3.90;74.80;;;;;;4973174;28;20037;-79
2022/03/03 00:20:10;;;;;;;19.20;10.50;;;4.00;75.00;;;;;;4959121;28;20026;-79
2022/03/03 00:22:36;;;;;;;17.40;10.40;;;3.90;75.00;;;;;;4959358;28;20018;-79
2022/03/03 00:25:03;;;;;;;17.93;11.23;;;3.90;75.00;;;;;;4974887;28;20037;-79
2022/03/03 00:27:30;;;;;;;18.47;10.90;;;3.90;75.30;;;;;;4960371;28;20508;-79
2022/03/03 00:29:56;;;;;;;16.13;9.77;;;3.80;75.30;;;;;;4943238;28;20030;-79
2022/03/03 00:32:24;;;;;;;16.17;8.67;;;3.80;75.90;;;;;;4981156;28;20742;-79
2022/03/03 00:34:51;;;;;;;15.53;9.20;;;3.70;75.30;;;;;;4962748;28;20023;-79
2022/03/03 00:37:28;;;;;;;16.63;9.50;;;3.70;75.40;;;;;;4943798;28;20879;-79
2022/03/03 00:40:16;;;;;;;14.30;8.47;;;3.60;75.50;;;;;;4953315;28;20027;-79
2022/03/03 00:42:42;;;;;;;16.37;9.93;;;3.60;75.70;;;;;;4953986;28;20038;-78
2022/03/03 00:45:13;;;;;;;18.40;10.27;;;3.60;76.00;;;;;;4928077;28;20034;-79
2022/03/03 00:47:50;;;;;;;18.00;10.00;;;3.50;76.20;;;;;;4942224;28;20058;-80
2022/03/03 00:50:26;;;;;;;18.43;10.50;;;3.50;76.20;;;;;;4960503;28;20066;-79
2022/03/03 00:52:58;;;;;;;14.77;8.47;;;3.40;76.30;;;;;;4948480;28;20586;-78
2022/03/03 00:55:28;;;;;;;17.15;10.57;;;3.40;76.40;;;;;;4962718;28;20019;-79
2022/03/03 00:57:55;;;;;;;20.07;10.93;;;3.40;76.80;;;;;;4946345;28;20468;-79
2022/03/03 01:00:24;;;;;;;23.87;12.03;;;3.40;77.00;;;;;;4957132;28;20032;-79
2022/03/03 01:02:52;;;;;;;18.63;11.53;;;3.40;77.20;;;;;;4930067;28;20030;-79
2022/03/03 01:05:22;;;;;;;22.13;11.00;;;3.30;77.40;;;;;;4946769;28;20097;-79
2022/03/03 01:07:54;;;;;;;;;;;3.30;77.50;;;;;;4948551;28;20034;-79
2022/03/03 01:10:24;;;;;;;17.33;10.37;;;3.20;77.60;;;;;;4944196;28;19906;-79
2022/03/03 01:12:51;;;;;;;17.13;10.03;;;3.20;77.70;;;;;;4941633;28;20045;-79
2022/03/03 01:15:20;;;;;;;18.70;11.17;;;3.20;77.90;;;;;;4928648;28;20038;-79
2022/03/03 01:17:51;;;;;;;21.33;11.83;;;3.20;78.30;;;;;;4958532;28;20031;-79
2022/03/03 01:20:20;;;;;;;19.93;11.67;;;3.10;78.20;;;;;;4946474;28;20043;-79
2022/03/03 01:22:58;;;;;;;19.00;11.83;;;3.10;78.60;;;;;;4955644;28;20027;-79
2022/03/03 01:25:26;;;;;;;20.57;12.43;;;3.10;78.70;;;;;;4946146;28;20027;-79
2022/03/03 01:27:56;;;;;;;18.73;10.97;;;3.10;78.90;;;;;;4961113;28;20440;-79
2022/03/03 01:30:26;;;;;;;18.43;11.60;;;3.10;79.50;;;;;;4947274;28;20034;-79
2022/03/03 01:32:53;;;;;;;19.90;11.67;;;3.00;79.10;;;;;;4976487;28;20065;-79
2022/03/03 01:35:19;;;;;;;15.20;9.30;;;3.00;79.20;;;;;;4967150;28;20034;-79
2022/03/03 01:37:46;;;;;;;13.77;8.60;;;3.00;79.20;;;;;;4965223;28;20035;-79
2022/03/03 01:40:13;;;;;;;14.37;8.63;;;2.90;79.20;;;;;;4944169;28;20088;-79
2022/03/03 01:42:39;;;;;;;19.00;11.23;;;2.90;79.20;;;;;;4956637;28;20049;-79
2022/03/03 01:45:07;;;;;;;13.20;8.43;;;2.90;79.40;;;;;;4987417;28;20077;-79
2022/03/03 01:47:33;;;;;;;17.40;8.93;;;2.80;79.50;;;;;;4953177;28;20042;-79
2022/03/03 01:50:00;;;;;;;15.23;9.17;;;2.80;79.50;;;;;;4953884;28;20056;-79
2022/03/03 01:52:26;;;;;;;16.90;9.83;;;2.70;79.60;;;;;;4939363;28;20025;-79
2022/03/03 01:54:53;;;;;;;22.97;11.97;;;2.70;79.70;;;;;;4970143;28;20385;-79
2022/03/03 01:57:20;;;;;;;16.73;10.17;;;2.70;80.00;;;;;;4956583;28;20053;-79
2022/03/03 01:59:48;;;;;;;15.80;8.87;;;2.70;80.10;;;;;;4969545;28;20386;-79
2022/03/03 02:02:16;;;;;;;17.00;9.83;;;2.60;80.30;;;;;;4989175;28;20479;-79
2022/03/03 02:04:43;;;;;;;15.30;8.97;;;2.60;80.30;;;;;;4952938;28;20030;-79
2022/03/03 02:07:10;;;;;;;16.93;10.33;;;2.60;80.60;;;;;;4954951;28;20022;-79
2022/03/03 02:09:37;;;;;;;17.30;8.90;;;2.50;80.80;;;;;;4985903;28;20028;-79
2022/03/03 02:12:04;;;;;;;18.67;9.57;;;2.50;80.80;;;;;;4974952;28;20030;-79
2022/03/03 02:14:40;;;;;;;18.87;11.87;;;2.50;80.80;;;;;;4937434;28;20026;-79
2022/03/03 02:17:06;;;;;;;19.47;10.67;;;2.50;81.10;;;;;;4957380;28;20038;-79
2022/03/03 02:19:34;;;;;;;18.43;10.17;;;2.50;81.40;;;;;;4943609;28;20470;-79
2022/03/03 02:22:00;;;;;;;17.93;9.77;;;2.50;81.70;;;;;;4962532;28;20042;-79
2022/03/03 02:24:27;;;;;;;19.67;10.03;;;2.50;81.80;;;;;;4955507;28;20512;-79
2022/03/03 02:26:53;;;;;;;16.60;9.67;;;2.40;81.70;;;;;;4960702;28;20045;-79
2022/03/03 02:29:20;;;;;;;16.37;9.93;;;2.40;81.80;;;;;;4936558;28;20034;-79
2022/03/03 02:31:48;;;;;;;17.00;10.60;;;2.40;81.80;;;;;;4956881;28;20033;-79
2022/03/03 02:34:14;;;;;;;14.17;8.97;;;2.40;82.10;;;;;;4985833;28;20143;-79
2022/03/03 02:36:41;;;;;;;15.37;8.73;;;2.40;82.10;;;;;;4958757;28;20358;-79
2022/03/03 02:39:07;;;;;;;14.40;8.87;;;2.30;82.20;;;;;;4950640;28;20486;-79
2022/03/03 02:41:34;;;;;;;14.93;8.80;;;2.30;82.20;;;;;;4986232;28;20030;-80
2022/03/03 02:44:02;;;;;;;12.97;7.23;;;2.30;82.40;;;;;;4968422;28;20034;-79
2022/03/03 02:46:29;;;;;;;14.13;8.77;;;2.30;82.40;;;;;;4941799;28;20041;-79
2022/03/03 02:48:56;;;;;;;15.63;8.80;;;2.20;82.50;;;;;;4953587;28;20043;-79
2022/03/03 02:51:24;;;;;;;18.10;9.83;;;2.20;82.60;;;;;;4977084;28;20053;-79
2022/03/03 02:53:50;;;;;;;22.97;13.10;;;2.10;82.70;;;;;;4945599;28;20029;-79
2022/03/03 02:56:17;;;;;;;15.33;9.10;;;2.10;83.30;;;;;;4960350;28;20515;-79
2022/03/03 02:58:43;;;;;;;18.20;10.33;;;2.10;83.30;;;;;;4960723;28;20034;-79
2022/03/03 03:01:11;;;;;;;19.03;10.90;;;2.10;83.40;;;;;;4961458;28;20022;-79
2022/03/03 03:03:38;;;;;;;18.53;9.83;;;2.10;83.60;;;;;;4941539;28;20050;-79
2022/03/03 03:06:05;;;;;;;21.83;11.53;;;2.10;83.70;;;;;;4943622;28;20054;-79
2022/03/03 03:08:31;;;;;;;18.33;10.80;;;2.10;84.00;;;;;;4985415;28;20038;-79
2022/03/03 03:10:58;;;;;;;16.00;10.20;;;2.00;84.30;;;;;;4959779;28;20351;-79
2022/03/03 03:13:24;;;;;;;16.87;10.00;;;2.10;84.50;;;;;;4925320;28;20553;-79
2022/03/03 03:15:51;;;;;;;23.03;11.33;;;2.10;84.40;;;;;;4957026;28;20038;-79
2022/03/03 03:18:20;;;;;;;18.33;10.73;;;2.00;84.80;;;;;;4940536;28;20397;-80
2022/03/03 03:20:49;;;;;;;21.23;10.27;;;2.00;84.70;;;;;;4966964;28;20092;-80
2022/03/03 03:23:20;;;;;;;16.20;10.27;;;2.00;84.80;;;;;;4941723;28;20496;-80
2022/03/03 03:25:47;;;;;;;18.77;10.03;;;1.90;84.90;;;;;;4969014;28;20030;-79
2022/03/03 03:28:15;;;;;;;15.43;9.50;;;1.90;84.90;;;;;;4966686;28;20371;-79
2022/03/03 03:30:42;;;;;;;16.93;9.70;;;1.90;85.10;;;;;;4972095;28;20014;-80
2022/03/03 03:33:11;;;;;;;13.47;8.63;;;1.90;85.30;;;;;;4958432;28;20052;-80
2022/03/03 03:35:39;;;;;;;15.33;8.83;;;1.80;85.20;;;;;;4987649;28;20038;-80
2022/03/03 03:38:07;;;;;;;20.10;10.47;;;1.80;85.30;;;;;;4971551;28;20034;-79
2022/03/03 03:40:34;;;;;;;17.63;10.57;;;1.80;85.70;;;;;;4992707;28;20022;-79
2022/03/03 03:43:02;;;;;;;16.00;8.67;;;1.80;85.90;;;;;;4978450;28;20056;-79
2022/03/03 03:45:31;;;;;;;14.80;9.27;;;1.70;85.80;;;;;;4973519;28;20034;-80
2022/03/03 03:47:59;;;;;;;14.27;8.60;;;1.70;86.00;;;;;;4943202;28;20050;-79
2022/03/03 03:50:26;;;;;;;14.27;7.57;;;1.70;86.00;;;;;;4974125;28;20038;-79
2022/03/03 03:52:54;;;;;;;15.57;8.63;;;1.70;85.90;;;;;;4977737;28;20495;-79
2022/03/03 03:55:20;;;;;;;14.93;10.03;;;1.60;86.10;;;;;;4978799;28;20172;-79
2022/03/03 03:57:51;;;;;;;15.57;9.30;;;1.60;86.40;;;;;;4954372;28;20050;-79
2022/03/03 04:00:26;;;;;;;15.97;8.50;;;1.60;86.40;;;;;;4992310;28;20044;-80
2022/03/03 04:02:57;;;;;;;15.30;8.73;;;1.50;86.50;;;;;;4993643;28;20343;-79
2022/03/03 04:05:32;;;;;;;14.77;8.03;;;1.50;86.60;;;;;;4964279;28;20088;-79
2022/03/03 04:07:59;;;;;;;15.43;8.73;;;1.50;86.70;;;;;;4973466;28;20043;-79
2022/03/03 04:10:28;;;;;;;11.00;6.00;;;1.50;86.80;;;;;;4942086;28;20532;-79
2022/03/03 04:12:56;;;;;;;13.40;8.23;;;1.50;86.80;;;;;;4961993;28;20065;-79
2022/03/03 04:15:25;;;;;;;14.43;8.17;;;1.40;86.80;;;;;;4944751;28;20612;-79
2022/03/03 04:17:56;;;;;;;16.03;9.03;;;1.40;86.90;;;;;;4943094;28;20462;-79
2022/03/03 04:20:24;;;;;;;16.37;9.60;;;1.40;87.30;;;;;;4973514;28;20031;-80
2022/03/03 04:22:52;;;;;;;16.07;9.13;;;1.30;87.50;;;;;;4945423;28;20050;-79
2022/03/03 04:25:27;;;;;;;18.97;9.60;;;1.40;87.50;;;;;;4954771;28;20042;-79
2022/03/03 04:28:03;;;;;;;16.40;9.03;;;1.30;87.50;;;;;;4958403;28;20042;-79
2022/03/03 04:30:31;;;;;;;17.77;10.07;;;1.30;88.00;;;;;;4956534;28;20454;-79
2022/03/03 04:32:57;;;;;;;15.33;9.40;;;1.30;88.20;;;;;;4971200;28;20050;-80
2022/03/03 04:35:24;;;;;;;16.47;8.73;;;1.20;88.40;;;;;;4956530;28;20023;-78
2022/03/03 04:37:50;;;;;;;14.83;7.83;;;1.20;88.40;;;;;;4941062;28;20030;-79
2022/03/03 04:40:17;;;;;;;14.73;7.60;;;1.20;88.30;;;;;;4942686;28;20030;-79
2022/03/03 04:42:43;;;;;;;15.23;7.17;;;1.20;88.30;;;;;;4941008;28;20034;-79
2022/03/03 04:45:10;;;;;;;17.00;7.97;;;1.10;88.40;;;;;;4937798;28;20466;-79
2022/03/03 04:47:36;;;;;;;17.03;7.87;;;1.10;88.60;;;;;;4938692;28;20043;-79
2022/03/03 04:50:04;;;;;;;14.13;8.27;;;1.10;88.60;;;;;;4926107;28;20489;-80
2022/03/03 04:52:31;;;;;;;15.93;8.17;;;1.00;88.80;;;;;;4941159;28;20022;-79
2022/03/03 04:54:57;;;;;;;13.90;8.37;;;1.00;89.20;;;;;;4927274;28;20035;-79
2022/03/03 04:57:23;;;;;;;16.57;8.13;;;1.00;89.10;;;;;;4941288;28;20057;-79
2022/03/03 04:59:50;;;;;;;14.93;7.73;;;1.00;89.20;;;;;;4924620;28;21029;-78
2022/03/03 05:02:16;;;;;;;13.93;7.70;;;1.00;89.80;;;;;;4912470;28;20030;-79
2022/03/03 05:04:43;;;;;;;13.90;8.87;;;1.00;89.30;;;;;;4924590;28;20489;-79
2022/03/03 05:07:09;;;;;;;12.03;6.77;;;1.00;89.50;;;;;;4939822;28;20499;-79
2022/03/03 05:09:36;;;;;;;15.23;7.20;;;1.00;89.40;;;;;;4941674;28;20482;-79
2022/03/03 05:12:03;;;;;;;14.13;7.97;;;1.00;89.40;;;;;;4912825;28;20366;-78
2022/03/03 05:14:30;;;;;;;14.47;7.93;;;1.00;89.70;;;;;;4910099;28;20046;-79
2022/03/03 05:16:56;;;;;;;12.97;7.53;;;0.90;89.60;;;;;;4909728;28;20031;-78
2022/03/03 05:19:22;;;;;;;13.07;7.47;;;0.90;89.70;;;;;;4923500;28;20049;-79
2022/03/03 05:21:49;;;;;;;11.20;6.70;;;0.90;89.80;;;;;;4925486;28;20492;-79
2022/03/03 05:24:16;;;;;;;11.77;6.43;;;0.80;89.80;;;;;;4920869;28;20027;-78
2022/03/03 05:26:42;;;;;;;12.10;6.23;;;0.80;89.90;;;;;;4955848;28;20031;-79
2022/03/03 05:29:09;;;;;;;14.37;6.37;;;0.80;90.00;;;;;;4920904;28;20034;-79
2022/03/03 05:31:35;;;;;;;13.43;6.60;;;0.70;90.10;;;;;;4956563;28;20391;-78
2022/03/03 05:34:04;;;;;;;13.60;7.57;;;0.70;90.10;;;;;;4935055;28;20121;-79
2022/03/03 05:36:32;;;;;;;13.37;8.20;;;0.70;90.20;;;;;;4976700;28;20037;-78
2022/03/03 05:39:05;;;;;;;14.20;8.23;;;0.60;90.30;;;;;;4984457;28;20061;-79
2022/03/03 05:41:38;;;;;;;14.10;7.30;;;0.60;90.30;;;;;;4986922;28;20049;-78
2022/03/03 05:44:12;;;;;;;12.40;6.77;;;0.60;90.30;;;;;;4986138;28;20037;-79
2022/03/03 05:46:46;;;;;;;13.80;7.20;;;0.60;90.40;;;;;;4990389;28;20021;-78
2022/03/03 05:49:19;;;;;;;14.43;7.55;;;0.50;90.50;;;;;;4971052;28;20041;-78
2022/03/03 05:51:46;;;;;;;10.38;5.10;;;0.60;90.50;;;;;;4992211;28;20034;-78
2022/03/03 05:54:18;;;;;;;17.27;9.23;;;0.60;90.50;;;;;;4969932;28;20018;-78
2022/03/03 05:56:54;;;;;;;13.40;7.68;;;0.50;90.70;;;;;;4979048;28;20030;-79
2022/03/03 05:59:23;;;;;;;12.80;6.97;;;0.60;90.70;;;;;;4971080;28;20046;-79
2022/03/03 06:01:50;;;;;;;13.90;7.90;;;0.50;90.70;;;;;;4991200;28;20022;-78
2022/03/03 06:04:21;;;;;;;15.20;8.23;;;0.60;90.70;;;;;;4959836;28;20403;-78
2022/03/03 06:07:12;;;;;;;14.67;6.63;;;0.50;90.70;;;;;;4996785;28;20037;-78
2022/03/03 06:09:41;;;;;;;10.87;5.70;;;0.50;90.80;;;;;;4970327;28;20029;-78
2022/03/03 06:12:40;;;;;;;14.83;6.97;;;0.50;91.00;;;;;;5007318;28;20025;-81
2022/03/03 06:15:09;;;;;;;12.50;6.33;;;0.50;90.90;;;;;;4957429;28;20022;-81
2022/03/03 06:17:42;;;;;;;10.00;5.40;;;0.40;90.80;;;;;;4957327;28;20030;-81
2022/03/03 06:20:09;;;;;;;14.63;6.40;;;0.40;90.90;;;;;;4970978;28;20042;-81
2022/03/03 06:22:40;;;;;;;12.33;6.57;;;0.40;90.90;;;;;;4974808;28;20042;-81
2022/03/03 06:25:22;;;;;;;10.43;5.40;;;0.40;90.90;;;;;;4972829;28;20394;-83
2022/03/03 06:27:50;;;;;;;10.73;6.07;;;0.30;91.00;;;;;;4965720;28;20042;-81
2022/03/03 06:30:29;;;;;;;13.70;6.77;;;0.30;91.00;;;;;;4956481;28;20046;-81
2022/03/03 06:32:55;;;;;;;9.47;6.50;;;0.40;91.10;;;;;;4972097;28;20045;-80
2022/03/03 06:35:22;;;;;;;11.03;7.17;;;0.40;91.10;;;;;;4970807;28;20402;-80
2022/03/03 06:37:48;;;;;;;29.03;12.27;;;0.40;91.10;;;;;;4970558;28;20045;-80
2022/03/03 06:40:15;;;;;;;13.77;7.93;;;0.50;91.10;;;;;;4957885;28;20038;-81
2022/03/03 06:42:41;;;;;;;17.23;9.67;;;0.50;91.10;;;;;;4939117;28;20061;-79
2022/03/03 06:45:09;;;;;;;16.57;8.20;;;0.50;91.10;;;;;;4951890;28;20022;-80
2022/03/03 06:47:35;;;;;;;14.67;8.10;;;0.60;91.20;;;;;;4984148;28;20042;-80
2022/03/03 06:50:02;;;;;;;16.67;8.27;;;0.70;91.20;;;;;;4950990;28;20065;-79
2022/03/03 06:52:33;;;;;;;14.10;7.10;;;0.80;91.10;;;;;;4970497;28;20035;-79
2022/03/03 06:55:00;;;;;;;13.53;7.80;;;0.90;91.10;;;;;;4968284;28;20031;-79
2022/03/03 06:57:29;;;;;;;13.90;8.20;;;1.00;91.10;;;;;;4980825;28;20047;-80
2022/03/03 07:00:00;;;;;;;13.37;7.37;;;1.10;91.00;;;;;;4968296;28;20034;-79
2022/03/03 07:02:27;;;;;;;14.57;8.30;;;1.20;90.90;;;;;;4971926;28;20038;-80
2022/03/03 07:04:54;;;;;;;12.90;7.07;;;1.40;91.00;;;;;;4955340;28;20026;-79
2022/03/03 07:07:22;;;;;;;12.83;8.43;;;1.50;90.90;;;;;;4953783;28;20042;-79
2022/03/03 07:09:50;;;;;;;16.10;9.53;;;1.70;90.80;;;;;;4969047;28;20038;-80
2022/03/03 07:12:18;;;;;;;15.53;8.97;;;1.70;90.70;;;;;;4955473;28;20042;-80
2022/03/03 07:14:44;;;;;;;15.47;9.97;;;1.90;90.70;;;;;;4968228;28;20025;-78
2022/03/03 07:17:40;;;;;;;19.60;10.33;;;2.00;90.70;;;;;;4990388;28;20035;-77
2022/03/03 07:20:09;;;;;;;16.47;9.60;;;2.20;90.60;;;;;;4954367;28;20559;-76
2022/03/03 07:22:44;;;;;;;14.17;9.30;;;2.30;90.50;;;;;;4959552;28;20038;-76
2022/03/03 07:25:14;;;;;;;16.43;10.07;;;2.40;90.50;;;;;;4961075;28;20026;-78
2022/03/03 07:27:43;;;;;;;18.07;10.20;;;2.50;90.40;;;;;;4984497;28;20037;-78
2022/03/03 07:30:13;;;;;;;19.47;10.20;;;2.60;90.30;;;;;;4954760;28;20026;-78
2022/03/03 07:32:46;;;;;;;19.23;10.90;;;2.70;90.20;;;;;;4987755;28;20035;-78
2022/03/03 07:35:14;;;;;;;22.07;12.07;;;2.80;90.00;;;;;;4972342;28;20058;-78
2022/03/03 07:38:03;;;;;;;15.37;10.10;;;3.00;89.70;;;;;;4943995;28;20034;-81
2022/03/03 07:40:32;;;;;;;17.57;10.93;;;3.10;89.40;;;;;;4956890;28;20043;-81
2022/03/03 07:42:59;;;;;;;16.33;9.97;;;3.20;88.90;;;;;;4956943;28;20032;-78
2022/03/03 07:45:28;;;;;;;15.27;9.07;;;3.40;88.80;;;;;;4957577;28;20022;-78
2022/03/03 07:47:55;;;;;;;15.97;8.87;;;3.50;88.40;;;;;;4987944;28;20033;-78
2022/03/03 07:50:23;;;;;;;15.53;9.67;;;3.60;88.40;;;;;;4973239;28;20367;-78
2022/03/03 07:52:54;;;;;;;15.43;9.57;;;3.80;87.90;;;;;;4971810;28;20037;-78
2022/03/03 07:55:22;;;;;;;16.67;10.03;;;3.90;87.10;;;;;;4954989;28;20034;-78
2022/03/03 07:58:02;;;;;;;17.70;10.10;;;4.10;86.70;;;;;;4987557;28;20033;-78
2022/03/03 08:00:34;;;;;;;16.73;9.87;;;4.30;86.10;;;;;;4941754;28;20390;-77
2022/03/03 08:03:05;;;;;;;15.13;9.60;;;4.40;85.50;;;;;;4957708;28;20386;-77
2022/03/03 08:05:32;;;;;;;17.43;9.83;;;4.60;85.10;;;;;;4985567;28;20018;-78
2022/03/03 08:08:02;;;;;;;15.30;10.17;;;4.70;84.50;;;;;;4955480;28;20038;-78
2022/03/03 08:10:30;;;;;;;15.60;9.33;;;4.90;84.10;;;;;;4969905;28;20026;-77
2022/03/03 08:12:58;;;;;;;16.00;9.63;;;5.00;83.60;;;;;;4957389;28;20046;-77
2022/03/03 08:15:26;;;;;;;17.33;11.53;;;5.10;82.90;;;;;;4973983;28;20045;-77
2022/03/03 08:17:53;;;;;;;16.50;10.10;;;5.20;82.60;;;;;;4990657;28;20034;-77
2022/03/03 08:20:21;;;;;;;15.87;9.80;;;5.20;81.30;;;;;;4956036;28;20022;-77
2022/03/03 08:22:48;;;;;;;13.73;9.53;;;5.30;81.20;;;;;;4987271;28;20409;-78
2022/03/03 08:25:17;;;;;;;15.53;9.87;;;5.40;81.30;;;;;;4973415;28;20037;-77
2022/03/03 08:27:44;;;;;;;14.03;9.50;;;5.50;81.20;;;;;;4986079;28;20462;-77
2022/03/03 08:30:13;;;;;;;17.40;11.73;;;5.60;81.20;;;;;;4954415;28;20041;-78
2022/03/03 08:32:44;;;;;;;15.10;11.03;;;5.60;80.00;;;;;;4969172;28;20053;-77
2022/03/03 08:35:15;;;;;;;22.70;12.53;;;5.70;79.60;;;;;;4972278;28;20027;-81
2022/03/03 08:37:44;;;;;;;19.13;11.73;;;5.80;79.00;;;;;;4977299;28;20030;-80
2022/03/03 08:40:16;;;;;;;15.70;10.67;;;5.80;79.10;;;;;;4989417;28;20033;-77
2022/03/03 08:42:48;;;;;;;20.00;11.80;;;5.90;79.10;;;;;;4984576;28;20037;-77
2022/03/03 08:45:18;;;;;;;17.95;11.48;;;6.00;78.70;;;;;;4975339;28;20620;-77
2022/03/03 08:47:57;;;;;;;17.47;10.97;;;6.00;78.30;;;;;;4971273;28;20041;-80
2022/03/03 08:50:27;;;;;;;15.00;11.37;;;6.20;78.00;;;;;;4971542;28;20049;-81
2022/03/03 08:52:58;;;;;;;18.13;11.27;;;6.20;77.70;;;;;;4990960;28;20041;-78
2022/03/03 08:55:26;;;;;;;19.73;11.70;;;6.30;77.60;;;;;;4957198;28;20918;-78
2022/03/03 08:57:53;;;;;;;17.70;11.63;;;6.40;77.90;;;;;;4971709;28;20813;-77
2022/03/03 09:00:19;;;;;;;17.30;11.87;;;6.50;77.50;;;;;;4954833;28;20049;-78
2022/03/03 09:02:47;;;;;;;18.93;11.00;;;6.60;76.60;;;;;;4972626;28;20037;-78
2022/03/03 09:05:15;;;;;;;16.67;11.20;;;6.60;76.20;;;;;;4960115;28;20041;-77
2022/03/03 09:07:41;;;;;;;18.53;12.53;;;6.70;76.50;;;;;;4968922;28;20042;-80
2022/03/03 09:10:08;;;;;;;22.33;13.68;;;6.70;76.30;;;;;;4952373;28;20520;-83
2022/03/03 09:12:35;;;;;;;20.93;11.20;;;6.80;75.80;;;;;;4957265;28;20038;-83
2022/03/03 09:15:03;;;;;;;15.83;10.60;;;6.90;75.90;;;;;;4960125;28;20039;-82
2022/03/03 09:17:29;;;;;;;18.98;12.10;;;7.00;75.50;;;;;;4955879;28;20046;-80
2022/03/03 09:19:56;;;;;;;17.70;12.23;;;7.10;74.60;;;;;;4955328;28;20049;-83
2022/03/03 09:22:22;;;;;;;17.00;11.30;;;7.20;73.70;;;;;;4942482;28;20034;-81
2022/03/03 09:24:48;;;;;;;25.80;16.30;;;7.30;73.70;;;;;;4972498;28;20478;-80
2022/03/03 09:27:15;;;;;;;17.30;11.93;;;7.40;73.90;;;;;;4968378;28;20023;-80
2022/03/03 09:29:41;;;;;;;17.85;12.23;;;7.50;73.60;;;;;;4970813;28;20045;-81
2022/03/03 09:32:09;;;;;;;15.48;10.80;;;7.60;73.40;;;;;;4937993;28;20029;-81
2022/03/03 09:34:36;;;;;;;16.05;10.48;;;7.70;73.60;;;;;;4963191;28;20041;-81
2022/03/03 09:37:03;;;;;;;18.27;11.70;;;7.80;73.80;;;;;;4960665;28;20030;-78
2022/03/03 09:39:29;;;;;;;16.60;12.63;;;8.00;73.00;;;;;;4956837;28;21688;-78
2022/03/03 09:41:56;;;;;;;22.08;12.98;;;8.00;72.90;;;;;;4959175;28;20033;-77
2022/03/03 09:44:27;;;;;;;18.33;11.93;;;8.00;72.50;;;;;;4972521;28;20027;-78
2022/03/03 09:46:55;;;;;;;16.23;10.47;;;8.00;72.70;;;;;;4990110;28;20030;-78
2022/03/03 09:49:22;;;;;;;15.95;11.30;;;8.10;73.20;;;;;;4955520;28;20458;-78
2022/03/03 09:51:50;;;;;;;13.63;10.20;;;8.10;74.00;;;;;;4976151;28;20535;-78
2022/03/03 09:54:17;;;;;;;22.17;12.77;;;8.20;74.40;;;;;;4973349;28;20026;-78
2022/03/03 09:56:45;;;;;;;18.50;11.93;;;8.30;74.00;;;;;;4976968;28;20381;-78
2022/03/03 09:59:12;;;;;;;17.80;13.43;;;8.40;73.40;;;;;;4952280;28;20345;-78
2022/03/03 10:01:40;;;;;;;15.98;11.88;;;8.50;73.50;;;;;;4962020;28;20031;-81
2022/03/03 10:04:22;;;;;;;17.75;11.65;;;8.60;73.00;;;;;;4987380;28;20037;-81
2022/03/03 10:06:50;;;;;;;16.42;11.32;;;8.60;73.20;;;;;;4973377;28;20037;-81
2022/03/03 10:09:19;;;;;;;19.77;13.35;;;8.70;72.00;;;;;;4945647;28;20041;-81
2022/03/03 10:11:49;;;;;;;17.83;12.77;;;8.80;72.00;;;;;;4979821;28;20042;-81
2022/03/03 10:14:26;;;;;;;17.33;11.25;;;8.90;71.70;;;;;;4976833;28;20049;-82
2022/03/03 10:16:53;;;;;;;17.67;11.50;;;8.90;71.90;;;;;;4961061;28;20038;-81
2022/03/03 10:19:19;;;;;;;18.95;12.27;;;9.00;71.60;;;;;;4967693;28;20042;-81
2022/03/03 10:21:46;;;;;;;16.42;12.05;;;9.10;71.80;;;;;;4970038;28;20034;-79
2022/03/03 10:24:21;;;;;;;18.27;11.88;;;9.30;72.00;;;;;;4953317;28;21034;-78
2022/03/03 10:26:56;;;;;;;15.90;11.65;;;9.50;71.00;;;;;;4987929;28;20030;-78
2022/03/03 10:29:22;;;;;;;15.88;11.75;;;9.70;72.00;;;;;;4952437;28;20026;-78
2022/03/03 10:31:51;;;;;;;16.27;11.55;;;10.00;72.00;;;;;;4970694;28;20526;-78
2022/03/03 10:34:25;;;;;;;17.50;11.40;;;10.30;70.00;;;;;;4955601;28;20046;-79
2022/03/03 10:36:59;;;;;;;15.13;11.60;;;10.70;68.80;;;;;;4984852;28;20022;-80
2022/03/03 10:39:39;;;;;;;15.63;11.32;;;11.00;69.50;;;;;;4971469;28;20389;-81
2022/03/03 10:42:21;;;;;;;15.13;11.02;;;11.30;68.20;;;;;;4954098;28;20034;-81
2022/03/03 10:44:49;;;;;;;12.55;10.10;;;11.60;66.00;;;;;;4970101;28;20042;-80
2022/03/03 10:47:27;;;;;;;14.15;10.60;;;11.70;65.50;;;;;;4966050;28;20038;-80
2022/03/03 10:49:55;;;;;;;15.50;11.77;;;11.90;65.60;;;;;;4955281;28;20037;-81
2022/03/03 10:52:22;;;;;;;15.20;11.75;;;12.20;64.30;;;;;;4992867;28;20026;-81
2022/03/03 10:55:13;;;;;;;11.98;9.90;;;12.30;64.00;;;;;;4973400;28;20034;-82
2022/03/03 10:57:57;;;;;;;13.13;10.15;;;12.50;62.70;;;;;;4959800;28;20099;-81
2022/03/03 11:00:31;;;;;;;12.88;11.20;;;12.80;63.10;;;;;;4955489;28;20043;-82
2022/03/03 11:02:59;;;;;;;12.85;10.23;;;13.10;62.70;;;;;;4970109;28;20027;-80
2022/03/03 11:05:28;;;;;;;14.25;11.20;;;13.30;60.80;;;;;;4972576;28;20034;-76
2022/03/03 11:07:58;;;;;;;14.68;10.98;;;13.60;61.50;;;;;;4973959;28;20057;-76
2022/03/03 11:10:27;;;;;;;14.63;12.65;;;13.70;60.10;;;;;;4971037;28;20046;-76
2022/03/03 11:12:54;;;;;;;14.88;11.38;;;13.80;59.60;;;;;;4991279;28;20065;-80
2022/03/03 11:15:23;;;;;;;12.80;10.75;;;13.90;58.80;;;;;;4960575;28;20045;-80
2022/03/03 11:17:51;;;;;;;12.88;10.70;;;14.10;58.70;;;;;;4969299;28;22740;-77
2022/03/03 11:20:19;;;;;;;11.25;9.32;;;14.30;57.60;;;;;;4972951;28;20512;-79
2022/03/03 11:22:53;;;;;;;11.80;10.10;;;14.50;57.90;;;;;;4970786;28;20059;-80
2022/03/03 11:25:29;;;;;;;13.45;11.38;;;14.80;57.30;;;;;;4962661;28;20040;-79
2022/03/03 11:28:08;;;;;;;20.60;15.90;;;15.00;56.30;;;;;;4956666;28;20030;-79
2022/03/03 11:30:35;;;;;;;13.00;11.23;;;15.10;55.30;;;;;;4974807;28;20021;-80
2022/03/03 11:33:26;;;;;;;13.43;10.13;;;15.20;55.60;;;;;;4970905;28;20065;-80
2022/03/03 11:36:02;;;;;;;13.02;10.45;;;15.40;54.30;;;;;;4992268;28;20034;-80
2022/03/03 11:39:00;;;;;;;14.18;10.95;;;15.50;53.50;;;;;;4969373;28;20022;-80
2022/03/03 11:41:46;;;;;;;13.35;10.35;;;15.50;53.00;;;;;;4991455;28;20038;-80
2022/03/03 11:44:14;;;;;;;13.63;10.70;;;15.40;52.20;;;;;;4990359;28;20390;-81
2022/03/03 11:46:49;;;;;;;11.60;10.05;;;15.30;52.10;;;;;;4974635;28;20034;-80
2022/03/03 11:49:19;;;;;;;14.88;10.57;;;15.20;52.70;;;;;;4985775;28;20045;-79
2022/03/03 11:51:48;;;;;;;13.07;11.25;;;15.00;52.20;;;;;;4991400;28;20030;-80
2022/03/03 11:54:25;;;;;;;13.75;11.40;;;14.90;51.80;;;;;;4975368;28;20370;-81
2022/03/03 11:57:28;;;;;;;13.40;11.60;;;14.90;51.60;;;;;;4958356;28;20039;-83
2022/03/03 12:00:01;;;;;;;11.67;10.17;;;14.90;51.30;;;;;;4938164;28;20378;-80
2022/03/03 12:02:32;;;;;;;12.52;10.70;;;14.70;52.00;;;;;;4987218;28;20041;-81
2022/03/03 12:05:27;;;;;;;12.55;10.38;;;14.50;52.40;;;;;;4972551;28;20030;-82
2022/03/03 12:08:01;;;;;;;12.18;10.32;;;14.70;53.30;;;;;;4973813;28;20030;-82
2022/03/03 12:10:29;;;;;;;12.02;10.65;;;15.10;51.90;;;;;;4941618;28;20036;-81
2022/03/03 12:13:22;;;;;;;10.35;9.25;;;15.60;51.20;;;;;;4990069;28;20049;-79
2022/03/03 12:16:13;;;;;;;12.38;10.30;;;16.10;49.60;;;;;;4953393;28;20034;-77
2022/03/03 12:18:43;;;;;;;13.35;10.32;;;16.40;49.10;;;;;;4971426;28;20045;-76
2022/03/03 12:21:27;;;;;;;13.18;10.85;;;16.70;48.50;;;;;;4974648;28;20042;-77
2022/03/03 12:24:12;;;;;;;11.88;10.18;;;17.00;46.30;;;;;;4990300;28;20014;-77
2022/03/03 12:26:51;;;;;;;10.05;8.98;;;17.30;45.70;;;;;;4966340;28;20033;-76
2022/03/03 12:29:42;;;;;;;11.57;9.48;;;17.50;46.10;;;;;;4985209;28;20034;-77
2022/03/03 12:32:35;;;;;;;11.15;8.95;;;18.00;45.00;;;;;;4972011;28;20038;-77
2022/03/03 12:35:05;;;;;;;10.85;8.90;;;18.20;43.40;;;;;;4991802;28;20050;-77
2022/03/03 12:37:32;;;;;;;9.18;7.90;;;18.30;41.70;;;;;;4981979;28;20040;-77
2022/03/03 12:40:03;;;;;;;8.43;7.55;;;18.40;42.30;;;;;;4966107;28;20033;-77
2022/03/03 12:42:33;;;;;;;9.35;8.43;;;18.70;42.50;;;;;;4968333;28;20018;-77
2022/03/03 12:45:07;;;;;;;8.88;7.70;;;19.10;40.40;;;;;;4968781;28;20011;-77
2022/03/03 12:47:36;;;;;;;10.57;9.02;;;19.30;40.00;;;;;;4961721;28;20038;-77
2022/03/03 12:50:12;;;;;;;8.93;7.75;;;19.50;40.30;;;;;;4958181;28;20034;-77
2022/03/03 12:52:41;;;;;;;9.32;8.40;;;19.60;40.30;;;;;;4987393;28;20030;-80
2022/03/03 12:55:10;;;;;;;9.77;8.75;;;20.00;39.90;;;;;;4970936;28;20387;-80